createdAt,value
2022-11-03T00:01:45.250Z,98771.09
2022-11-03T00:04:13.599Z,98778.38
2022-11-03T00:06:41.645Z,98770.03
2022-11-03T00:09:10.582Z,98773.13
2022-11-03T00:11:39.579Z,98775.41
2022-11-03T00:14:07.360Z,98771.91
2022-11-03T00:16:34.125Z,98771.09
2022-11-03T00:19:01.142Z,98768.69
2022-11-03T00:21:28.046Z,98764.28
2022-11-03T00:23:54.810Z,98769.88
2022-11-03T00:26:27.803Z,98763.72
2022-11-03T00:28:56.209Z,98768.56
2022-11-03T00:31:26.982Z,98760.16
2022-11-03T00:33:54.407Z,98753.16
2022-11-03T00:36:35.428Z,98748.88
2022-11-03T00:39:02.540Z,98748.31
2022-11-03T00:41:29.319Z,98744.00
2022-11-03T00:43:55.985Z,98736.09
2022-11-03T00:46:23.816Z,98724.38
2022-11-03T00:48:50.740Z,98728.25
2022-11-03T00:51:23.043Z,98718.06
2022-11-03T00:53:57.719Z,98715.09
2022-11-03T00:56:29.967Z,98715.81
2022-11-03T00:58:58.753Z,98717.75
2022-11-03T01:01:33.224Z,98714.34
2022-11-03T01:04:18.615Z,98717.28
2022-11-03T01:06:50.845Z,98713.97
2022-11-03T01:09:31.745Z,98705.34
2022-11-03T01:14:51.668Z,98698.16
2022-11-03T01:17:19.680Z,98696.59
2022-11-03T01:19:47.233Z,98695.19
2022-11-03T01:22:15.609Z,98690.94
2022-11-03T01:24:43.323Z,98690.03
2022-11-03T01:27:13.349Z,98698.34
2022-11-03T01:29:40.401Z,98682.44
2022-11-03T01:32:08.619Z,98684.16
2022-11-03T01:34:35.624Z,98687.50
2022-11-03T01:37:02.435Z,98680.22
2022-11-03T01:39:29.102Z,98673.28
2022-11-03T01:41:56.070Z,98667.16
2022-11-03T01:44:22.656Z,98674.66
2022-11-03T01:47:03.006Z,98669.88
2022-11-03T01:49:31.942Z,98661.59
2022-11-03T01:52:10.875Z,98657.25
2022-11-03T01:54:39.279Z,98662.63
2022-11-03T01:57:11.885Z,98649.78
2022-11-03T01:59:40.024Z,98654.03
2022-11-03T02:02:06.879Z,98646.44
2022-11-03T02:04:34.970Z,98646.31
2022-11-03T02:07:25.207Z,98652.91
2022-11-03T02:09:52.178Z,98640.06
2022-11-03T02:12:21.311Z,98635.41
2022-11-03T02:15:19.878Z,98628.66
2022-11-03T02:17:47.979Z,98635.56
2022-11-03T02:20:33.051Z,98625.84
2022-11-03T02:23:10.749Z,98633.41
2022-11-03T02:25:43.519Z,98620.50
2022-11-03T02:28:12.210Z,98619.16
2022-11-03T02:30:44.894Z,98617.19
2022-11-03T02:33:17.348Z,98620.38
2022-11-03T02:35:55.287Z,98622.41
2022-11-03T02:38:26.881Z,98616.34
2022-11-03T02:40:55.745Z,98622.38
2022-11-03T02:43:25.584Z,98620.69
2022-11-03T02:45:53.143Z,98616.63
2022-11-03T02:48:19.970Z,98619.81
2022-11-03T02:50:49.121Z,98615.97
2022-11-03T02:53:16.735Z,98600.31
2022-11-03T02:55:59.965Z,98607.72
2022-11-03T02:58:45.722Z,98602.59
2022-11-03T03:01:35.185Z,98595.91
2022-11-03T03:04:06.660Z,98589.22
2022-11-03T03:06:42.593Z,98579.69
2022-11-03T03:09:14.237Z,98578.50
2022-11-03T03:11:43.731Z,98573.91
2022-11-03T03:14:14.587Z,98556.59
2022-11-03T03:16:48.233Z,98551.00
2022-11-03T03:19:23.487Z,98548.34
2022-11-03T03:21:54.722Z,98558.84
2022-11-03T03:24:33.330Z,98553.41
2022-11-03T03:27:02.657Z,98544.78
2022-11-03T03:29:36.512Z,98545.25
2022-11-03T03:32:08.086Z,98533.03
2022-11-03T03:34:37.686Z,98535.97
2022-11-03T03:37:06.599Z,98523.81
2022-11-03T03:39:36.819Z,98530.16
2022-11-03T03:42:05.753Z,98521.69
2022-11-03T03:44:33.471Z,98515.31
2022-11-03T03:47:04.195Z,98531.31
2022-11-03T03:49:30.770Z,98523.72
2022-11-03T03:51:57.804Z,98528.28
2022-11-03T03:54:24.730Z,98515.66
2022-11-03T03:57:00.340Z,98510.19
2022-11-03T03:59:26.900Z,98507.47
2022-11-03T04:01:53.689Z,98503.66
2022-11-03T04:04:20.381Z,98499.91
2022-11-03T04:06:47.280Z,98493.88
2022-11-03T04:09:14.106Z,98494.47
2022-11-03T04:11:59.159Z,98482.50
2022-11-03T04:14:44.530Z,98482.72
2022-11-03T04:17:39.214Z,98466.94
2022-11-03T04:20:30.991Z,98467.50
2022-11-03T04:22:57.588Z,98446.66
2022-11-03T04:25:24.152Z,98457.72
2022-11-03T04:27:51.286Z,98453.88
2022-11-03T04:30:20.169Z,98445.50
2022-11-03T04:32:48.847Z,98438.69
2022-11-03T04:35:26.574Z,98437.66
2022-11-03T04:38:03.777Z,98435.63
2022-11-03T04:40:30.669Z,98435.63
2022-11-03T04:42:57.959Z,98435.63
2022-11-03T04:45:30.179Z,98437.66
2022-11-03T04:47:59.513Z,98423.91
2022-11-03T04:50:26.314Z,98421.31
2022-11-03T04:52:57.237Z,98414.38
2022-11-03T04:55:24.284Z,98416.81
2022-11-03T04:57:57.095Z,98421.66
2022-11-03T05:00:24.036Z,98413.41
2022-11-03T05:02:55.881Z,98416.75
2022-11-03T05:05:26.530Z,98410.78
2022-11-03T05:07:56.801Z,98413.63
2022-11-03T05:10:28.261Z,98407.25
2022-11-03T05:12:56.115Z,98400.16
2022-11-03T05:15:33.084Z,98405.34
2022-11-03T05:18:01.653Z,98398.31
2022-11-03T05:20:45.282Z,98401.53
2022-11-03T05:23:12.530Z,98392.72
2022-11-03T05:25:42.329Z,98392.88
2022-11-03T05:28:20.134Z,98388.88
2022-11-03T05:30:48.759Z,98391.81
2022-11-03T05:33:35.296Z,98384.34
2022-11-03T05:36:12.602Z,98383.44
2022-11-03T05:38:39.228Z,98377.56
2022-11-03T05:44:22.119Z,98366.56
2022-11-03T05:46:48.739Z,98367.53
2022-11-03T05:49:15.474Z,98359.91
2022-11-03T05:51:44.881Z,98356.81
2022-11-03T05:54:27.713Z,98357.16
2022-11-03T05:56:56.909Z,98353.38
2022-11-03T05:59:26.949Z,98353.84
2022-11-03T06:01:54.435Z,98342.25
2022-11-03T06:04:32.870Z,98347.13
2022-11-03T06:07:03.312Z,98339.81
2022-11-03T06:09:33.810Z,98350.28
2022-11-03T06:12:02.464Z,98351.66
2022-11-03T06:14:31.404Z,98342.63
2022-11-03T06:17:02.126Z,98340.97
2022-11-03T06:19:40.112Z,98344.84
2022-11-03T06:22:18.365Z,98341.97
2022-11-03T06:24:45.940Z,98332.94
2022-11-03T06:27:16.551Z,98329.09
2022-11-03T06:29:51.976Z,98318.13
2022-11-03T06:32:18.862Z,98314.94
2022-11-03T06:34:57.688Z,98305.28
2022-11-03T06:37:34.657Z,98309.56
2022-11-03T06:40:21.185Z,98300.75
2022-11-03T06:42:47.816Z,98300.41
2022-11-03T06:45:20.671Z,98302.78
2022-11-03T06:47:47.626Z,98309.25
2022-11-03T06:50:33.305Z,98312.41
2022-11-03T06:53:04.271Z,98309.25
2022-11-03T06:55:41.114Z,98316.91
2022-11-03T06:58:17.180Z,98311.56
2022-11-03T07:00:48.899Z,98317.91
2022-11-03T07:03:30.820Z,98319.84
2022-11-03T07:06:21.483Z,98321.09
2022-11-03T07:08:50.319Z,98319.34
2022-11-03T07:11:22.784Z,98321.75
2022-11-03T07:13:56.666Z,98315.13
2022-11-03T07:16:40.438Z,98310.03
2022-11-03T07:19:18.295Z,98299.47
2022-11-03T07:21:48.678Z,98302.84
2022-11-03T07:24:27.350Z,98309.25
2022-11-03T07:27:25.430Z,98287.78
2022-11-03T07:29:54.481Z,98281.66
2022-11-03T07:32:24.250Z,98278.16
2022-11-03T07:34:53.709Z,98268.69
2022-11-03T07:37:22.698Z,98264.47
2022-11-03T07:39:51.024Z,98262.50
2022-11-03T07:42:22.436Z,98264.19
2022-11-03T07:47:25.869Z,98267.47
2022-11-03T07:49:52.464Z,98261.28
2022-11-03T07:52:27.840Z,98257.00
2022-11-03T07:54:59.581Z,98255.44
2022-11-03T08:00:10.921Z,98245.94
2022-11-03T08:02:46.815Z,98238.50
2022-11-03T08:05:13.674Z,98240.06
2022-11-03T08:07:40.321Z,98235.97
2022-11-03T08:10:07.574Z,98240.13
2022-11-03T08:12:34.414Z,98231.16
2022-11-03T08:15:01.016Z,98233.06
2022-11-03T08:17:27.541Z,98235.38
2022-11-03T08:19:54.197Z,98224.63
2022-11-03T08:24:52.907Z,98207.69
2022-11-03T08:27:19.838Z,98197.28
2022-11-03T08:29:46.450Z,98194.06
2022-11-03T08:32:13.130Z,98186.41
2022-11-03T08:34:39.743Z,98177.13
2022-11-03T08:39:37.822Z,98168.38
2022-11-03T08:44:37.606Z,98165.78
2022-11-03T08:47:04.291Z,98169.00
2022-11-03T08:49:30.957Z,98155.50
2022-11-03T08:51:57.599Z,98161.13
2022-11-03T08:54:24.238Z,98150.28
2022-11-03T08:56:50.857Z,98152.38
2022-11-03T08:59:18.357Z,98157.50
2022-11-03T09:01:45.192Z,98152.16
2022-11-03T09:04:11.902Z,98149.53
2022-11-03T09:06:38.606Z,98139.09
2022-11-03T09:11:51.819Z,98139.63
2022-11-03T09:14:18.542Z,98136.22
2022-11-03T09:16:45.493Z,98144.50
2022-11-03T09:19:12.068Z,98141.00
2022-11-03T09:21:38.679Z,98142.97
2022-11-03T09:24:07.573Z,98139.56
2022-11-03T09:26:34.247Z,98141.16
2022-11-03T09:29:00.860Z,98142.38
2022-11-03T09:31:29.336Z,98136.94
2022-11-03T09:33:56.223Z,98134.63
2022-11-03T09:36:22.781Z,98146.72
2022-11-03T09:38:49.518Z,98127.50
2022-11-03T09:41:27.870Z,98127.91
2022-11-03T09:44:02.423Z,98127.19
2022-11-03T09:46:30.343Z,98126.34
2022-11-03T09:51:28.865Z,98118.50
2022-11-03T09:54:04.771Z,98114.97
2022-11-03T09:56:32.153Z,98107.97
2022-11-03T09:59:00.170Z,98104.03
2022-11-03T10:01:27.434Z,98101.72
2022-11-03T10:03:58.015Z,98098.97
2022-11-03T10:06:24.601Z,98088.47
2022-11-03T10:08:51.201Z,98074.78
2022-11-03T10:11:18.043Z,98075.16
2022-11-03T10:13:53.947Z,98072.81
2022-11-03T10:16:24.498Z,98074.38
2022-11-03T10:18:51.390Z,98077.88
2022-11-03T10:21:19.078Z,98061.84
2022-11-03T10:23:45.712Z,98065.00
2022-11-03T10:26:18.859Z,98066.94
2022-11-03T10:32:30.388Z,98066.59
2022-11-03T10:34:56.984Z,98061.53
2022-11-03T10:37:25.805Z,98054.50
2022-11-03T10:39:54.339Z,98046.28
2022-11-03T10:42:23.164Z,98039.97
2022-11-03T10:45:17.579Z,98032.94
2022-11-03T10:47:44.813Z,98032.59
2022-11-03T10:50:22.658Z,98032.19
2022-11-03T10:52:50.381Z,98029.84
2022-11-03T10:55:22.180Z,98019.28
2022-11-03T10:57:55.635Z,98012.63
2022-11-03T11:00:22.264Z,98000.50
2022-11-03T11:05:23.136Z,98004.03
2022-11-03T11:07:53.033Z,97998.94
2022-11-03T11:10:23.643Z,98004.44
2022-11-03T11:13:24.502Z,97995.41
2022-11-03T11:16:00.010Z,97989.16
2022-11-03T11:18:29.559Z,97977.41
2022-11-03T11:20:57.599Z,97965.66
2022-11-03T11:23:27.067Z,97949.22
2022-11-03T11:26:27.356Z,97945.69
2022-11-03T11:29:09.058Z,97948.41
2022-11-03T11:31:37.208Z,97944.91
2022-11-03T11:34:10.004Z,97939.03
2022-11-03T11:36:37.314Z,97938.25
2022-11-03T11:39:25.040Z,97933.16
2022-11-03T11:42:17.969Z,97931.97
2022-11-03T11:44:47.328Z,97920.22
2022-11-03T11:47:25.668Z,97922.56
2022-11-03T11:50:07.553Z,97922.56
2022-11-03T11:53:10.276Z,97921.41
2022-11-03T11:55:38.249Z,97902.97
2022-11-03T11:58:16.872Z,97897.50
2022-11-03T12:00:55.524Z,97899.84
2022-11-03T12:03:27.777Z,97894.72
2022-11-03T12:05:54.459Z,97893.53
2022-11-03T12:08:25.817Z,97892.38
2022-11-03T12:10:54.148Z,97882.94
2022-11-03T12:13:51.436Z,97873.16
2022-11-03T12:19:34.655Z,97857.06
2022-11-03T12:22:02.632Z,97846.88
2022-11-03T12:24:32.355Z,97842.53
2022-11-03T12:27:00.514Z,97833.13
2022-11-03T12:29:27.099Z,97830.41
2022-11-03T12:31:53.869Z,97827.25
2022-11-03T12:34:20.490Z,97828.78
2022-11-03T12:36:50.655Z,97821.38
2022-11-03T12:39:20.158Z,97815.06
2022-11-03T12:41:46.732Z,97810.41
2022-11-03T12:44:13.341Z,97808.03
2022-11-03T12:46:39.906Z,97811.13
2022-11-03T12:49:06.470Z,97802.97
2022-11-03T12:51:33.068Z,97798.25
2022-11-03T12:53:59.646Z,97790.00
2022-11-03T12:56:26.507Z,97783.34
2022-11-03T12:58:53.140Z,97783.72
2022-11-03T13:01:19.859Z,97772.72
2022-11-03T13:03:46.844Z,97768.81
2022-11-03T13:06:14.947Z,97761.00
2022-11-03T13:08:41.851Z,97760.19
2022-11-03T13:11:28.708Z,97746.47
2022-11-03T13:13:55.883Z,97744.09
2022-11-03T13:16:22.892Z,97740.97
2022-11-03T13:18:49.527Z,97729.63
2022-11-03T13:21:16.111Z,97723.03
2022-11-03T13:23:42.761Z,97720.28
2022-11-03T13:26:09.540Z,97716.34
2022-11-03T13:28:36.679Z,97699.88
2022-11-03T13:31:03.313Z,97685.75
2022-11-03T13:33:29.928Z,97686.94
2022-11-03T13:35:56.601Z,97679.03
2022-11-03T13:38:23.233Z,97669.38
2022-11-03T13:40:57.807Z,97669.34
2022-11-03T13:46:05.120Z,97655.47
2022-11-03T13:51:19.102Z,97653.44
2022-11-03T13:59:26.566Z,97638.22
2022-11-03T14:07:27.481Z,97619.38
2022-11-03T14:09:55.897Z,97613.88
2022-11-03T14:12:34.824Z,97604.19
2022-11-03T14:17:37.194Z,97598.31
2022-11-03T14:20:05.220Z,97584.31
2022-11-03T14:22:32.562Z,97585.97
2022-11-03T14:24:59.712Z,97574.19
2022-11-03T14:27:26.337Z,97567.50
2022-11-03T14:32:24.362Z,97555.34
2022-11-03T14:34:51.016Z,97560.09
2022-11-03T14:37:17.800Z,97565.16
2022-11-03T14:39:44.465Z,97558.13
2022-11-03T14:42:17.192Z,97557.31
2022-11-03T14:44:45.850Z,97553.84
2022-11-03T14:47:15.481Z,97546.41
2022-11-03T14:49:42.177Z,97551.53
2022-11-03T14:52:09.170Z,97555.44
2022-11-03T14:54:36.499Z,97546.88
2022-11-03T14:57:04.129Z,97544.53
2022-11-03T14:59:31.179Z,97542.16
2022-11-03T15:01:58.805Z,97524.56
2022-11-03T15:04:26.106Z,97516.69
2022-11-03T15:06:52.743Z,97504.91
2022-11-03T15:09:19.838Z,97497.94
2022-11-03T15:11:46.808Z,97496.41
2022-11-03T15:14:13.487Z,97502.25
2022-11-03T15:16:40.453Z,97495.69
2022-11-03T15:19:08.065Z,97494.16
2022-11-03T15:21:34.956Z,97489.88
2022-11-03T15:26:48.539Z,97474.16
2022-11-03T15:29:15.155Z,97474.16
2022-11-03T15:31:47.218Z,97472.25
2022-11-03T15:34:14.665Z,97457.78
2022-11-03T15:36:41.277Z,97461.69
2022-11-03T15:39:07.911Z,97459.31
2022-11-03T15:41:34.473Z,97451.53
2022-11-03T15:44:01.084Z,97453.88
2022-11-03T15:46:27.657Z,97444.56
2022-11-03T15:48:56.625Z,97448.44
2022-11-03T15:51:23.511Z,97450.16
2022-11-03T15:53:54.972Z,97444.69
2022-11-03T15:56:24.751Z,97436.88
2022-11-03T15:58:51.317Z,97427.84
2022-11-03T16:01:18.013Z,97428.31
2022-11-03T16:03:44.629Z,97407.88
2022-11-03T16:06:11.261Z,97402.84
2022-11-03T16:08:38.339Z,97387.56
2022-11-03T16:11:05.080Z,97373.44
2022-11-03T16:13:31.593Z,97367.53
2022-11-03T16:15:58.402Z,97369.50
2022-11-03T16:18:25.129Z,97366.03
2022-11-03T16:20:51.751Z,97365.66
2022-11-03T16:23:18.311Z,97367.28
2022-11-03T16:25:44.908Z,97357.53
2022-11-03T16:28:11.643Z,97359.13
2022-11-03T16:30:38.860Z,97353.25
2022-11-03T16:33:05.831Z,97350.56
2022-11-03T16:35:32.392Z,97343.53
2022-11-03T16:37:59.030Z,97335.75
2022-11-03T16:40:25.798Z,97333.09
2022-11-03T16:42:52.494Z,97331.22
2022-11-03T16:45:25.995Z,97323.34
2022-11-03T16:47:53.197Z,97320.97
2022-11-03T16:50:20.192Z,97327.66
2022-11-03T16:52:48.146Z,97312.81
2022-11-03T16:55:15.873Z,97316.72
2022-11-03T16:57:43.055Z,97314.41
2022-11-03T17:00:15.445Z,97310.19
2022-11-03T17:02:42.555Z,97315.59
2022-11-03T17:07:41.463Z,97303.66
2022-11-03T17:12:41.046Z,97309.94
2022-11-03T17:15:08.312Z,97311.53
2022-11-03T17:17:35.083Z,97309.19
2022-11-03T17:20:01.659Z,97313.13
2022-11-03T17:22:28.278Z,97318.97
2022-11-03T17:24:54.842Z,97320.16
2022-11-03T17:27:24.928Z,97319.75
2022-11-03T17:29:55.748Z,97320.13
2022-11-03T17:32:39.264Z,97329.50
2022-11-03T17:35:24.534Z,97331.44
2022-11-03T17:37:54.539Z,97342.00
2022-11-03T17:40:23.613Z,97319.25
2022-11-03T17:42:50.388Z,97334.09
2022-11-03T17:45:19.477Z,97337.56
2022-11-03T17:47:46.427Z,97337.97
2022-11-03T17:50:14.926Z,97336.81
2022-11-03T17:52:41.915Z,97327.00
2022-11-03T17:55:29.477Z,97316.03
2022-11-03T17:57:59.330Z,97311.72
2022-11-03T18:00:26.647Z,97310.91
2022-11-03T18:02:55.575Z,97323.06
2022-11-03T18:05:26.937Z,97319.94
2022-11-03T18:07:55.045Z,97312.06
2022-11-03T18:10:24.162Z,97314.34
2022-11-03T18:13:11.246Z,97302.56
2022-11-03T18:15:39.952Z,97280.50
2022-11-03T18:18:25.878Z,97282.50
2022-11-03T18:20:53.998Z,97271.91
2022-11-03T18:23:22.387Z,97267.00
2022-11-03T18:25:49.376Z,97264.66
2022-11-03T18:28:16.259Z,97272.94
2022-11-03T18:30:45.800Z,97264.84
2022-11-03T18:33:34.255Z,97267.22
2022-11-03T18:36:06.409Z,97256.16
2022-11-03T18:38:36.631Z,97263.69
2022-11-03T18:41:23.469Z,97253.97
2022-11-03T18:43:50.028Z,97259.44
2022-11-03T18:46:16.626Z,97259.13
2022-11-03T18:48:43.179Z,97262.94
2022-11-03T18:51:09.980Z,97276.31
2022-11-03T18:53:36.566Z,97291.72
2022-11-03T18:56:03.206Z,97288.16
2022-11-03T18:58:29.940Z,97267.78
2022-11-03T19:00:56.588Z,97265.38
2022-11-03T19:03:23.800Z,97264.22
2022-11-03T19:05:52.850Z,97252.22
2022-11-03T19:08:23.989Z,97241.59
2022-11-03T19:10:52.301Z,97229.09
2022-11-03T19:13:40.458Z,97219.41
2022-11-03T19:18:56.355Z,97202.91
2022-11-03T19:21:24.335Z,97188.38
2022-11-03T19:23:55.485Z,97191.00
2022-11-03T19:26:34.732Z,97184.00
2022-11-03T19:29:05.875Z,97190.69
2022-11-03T19:31:38.912Z,97213.06
2022-11-03T19:34:11.257Z,97194.72
2022-11-03T19:36:40.294Z,97190.88
2022-11-03T19:39:30.274Z,97193.16
2022-11-03T19:42:19.169Z,97199.84
2022-11-03T19:44:45.979Z,97200.31
2022-11-03T19:47:17.473Z,97205.72
2022-11-03T19:49:45.542Z,97189.66
2022-11-03T19:52:14.793Z,97211.56
2022-11-03T19:54:44.129Z,97192.50
2022-11-03T19:57:12.063Z,97187.53
2022-11-03T19:59:38.880Z,97184.31
2022-11-03T20:02:05.588Z,97184.13
2022-11-03T20:04:32.322Z,97180.22
2022-11-03T20:06:59.507Z,97177.03
2022-11-03T20:12:00.043Z,97167.69
2022-11-03T20:14:27.492Z,97168.56
2022-11-03T20:16:57.903Z,97172.28
2022-11-03T20:19:24.455Z,97173.38
2022-11-03T20:21:51.632Z,97179.72
2022-11-03T20:24:19.365Z,97195.03
2022-11-03T20:26:46.090Z,97200.88
2022-11-03T20:29:14.626Z,97197.41
2022-11-03T20:31:43.431Z,97190.31
2022-11-03T20:34:13.912Z,97180.00
2022-11-03T20:36:41.476Z,97181.34
2022-11-03T20:39:13.148Z,97182.56
2022-11-03T20:41:43.486Z,97181.88
2022-11-03T20:44:12.754Z,97158.84
2022-11-03T20:46:39.608Z,97166.72
2022-11-03T20:49:06.452Z,97157.59
2022-11-03T20:51:41.039Z,97150.63
2022-11-03T20:54:25.918Z,97154.88
2022-11-03T20:56:52.435Z,97165.81
2022-11-03T20:59:21.412Z,97174.44
2022-11-03T21:01:48.234Z,97187.25
2022-11-03T21:04:16.970Z,97186.44
2022-11-03T21:06:44.162Z,97179.06
2022-11-03T21:09:13.042Z,97187.59
2022-11-03T21:14:15.165Z,97186.72
2022-11-03T21:17:01.159Z,97199.31
2022-11-03T21:19:49.706Z,97207.94
2022-11-03T21:22:50.302Z,97202.59
2022-11-03T21:27:54.017Z,97213.94
2022-11-03T21:30:22.179Z,97217.09
2022-11-03T21:32:48.818Z,97218.69
2022-11-03T21:35:17.884Z,97217.16
2022-11-03T21:37:44.483Z,97215.94
2022-11-03T21:40:11.603Z,97212.84
2022-11-03T21:42:56.792Z,97212.06
2022-11-03T21:45:23.484Z,97196.44
2022-11-03T21:48:13.462Z,97196.50
2022-11-03T21:50:41.087Z,97190.22
2022-11-03T21:53:08.119Z,97191.88
2022-11-03T21:55:35.530Z,97197.28
2022-11-03T21:58:03.054Z,97189.97
2022-11-03T22:00:29.980Z,97187.16
2022-11-03T22:02:56.603Z,97190.28
2022-11-03T22:05:23.169Z,97195.31
2022-11-03T22:07:49.741Z,97193.34
2022-11-03T22:10:16.320Z,97213.66
2022-11-03T22:12:42.901Z,97228.88
2022-11-03T22:15:28.954Z,97241.84
2022-11-03T22:18:02.919Z,97261.25
2022-11-03T22:20:48.349Z,97288.59
2022-11-03T22:23:34.237Z,97290.25
2022-11-03T22:26:20.045Z,97283.22
2022-11-03T22:29:06.588Z,97284.06
2022-11-03T22:31:42.202Z,97285.19
2022-11-03T22:34:27.652Z,97296.53
2022-11-03T22:39:50.113Z,97302.34
2022-11-03T22:42:35.131Z,97298.03
2022-11-03T22:45:20.394Z,97298.81
2022-11-03T22:47:46.995Z,97307.78
2022-11-03T22:50:13.629Z,97312.09
2022-11-03T22:52:40.256Z,97324.66
2022-11-03T22:55:07.151Z,97342.56
2022-11-03T22:57:33.740Z,97346.47
2022-11-03T23:00:00.303Z,97341.84
2022-11-03T23:02:26.948Z,97337.16
2022-11-03T23:04:53.539Z,97336.00
2022-11-03T23:07:20.096Z,97335.22
2022-11-03T23:09:46.683Z,97328.16
2022-11-03T23:12:13.444Z,97325.06
2022-11-03T23:14:58.443Z,97340.63
2022-11-03T23:17:45.009Z,97346.47
2022-11-03T23:20:30.130Z,97353.50
2022-11-03T23:22:56.698Z,97361.38
2022-11-03T23:25:23.373Z,97362.13
2022-11-03T23:27:49.999Z,97359.03
2022-11-03T23:30:16.562Z,97351.56
2022-11-03T23:32:43.163Z,97352.78
2022-11-03T23:35:10.631Z,97355.13
2022-11-03T23:37:37.254Z,97357.88
2022-11-03T23:40:04.273Z,97374.28
2022-11-03T23:42:30.834Z,97382.50
2022-11-03T23:45:16.247Z,97384.44
2022-11-03T23:48:01.451Z,97373.94
2022-11-03T23:50:28.085Z,97373.16
2022-11-03T23:52:54.656Z,97386.03
2022-11-03T23:55:21.208Z,97353.63
2022-11-03T23:58:06.492Z,97348.94
